Time;durP1;ratioP1;P1;durP2;ratioP2;P2;SDS_P1;SDS_P2;PMS_P1;PMS_P2;Temp;Humidity;BMP_temperature;BMP_pressure;BME280_temperature;BME280_humidity;BME280_pressure;Samples;Min_cycle;Max_cycle;Signal;HPM_P1;HPM_P2
2021/01/01 15:36:38;;;;;;;6.55;4.40;;;4.90;93.80;;;;;;5141270;27;27583;-56
2021/01/01 15:39:22;;;;;;;5.68;4.15;;;4.70;93.70;;;;;;5142409;27;27503;-57
2021/01/01 15:42:07;;;;;;;8.13;4.85;;;4.60;93.70;;;;;;5142457;27;27406;-55
2021/01/01 15:44:51;;;;;;;8.63;4.78;;;4.50;94.00;;;;;;5142419;27;27314;-56
2021/01/01 15:47:36;;;;;;;5.72;4.20;;;4.40;93.90;;;;;;5142314;27;27330;-55
2021/01/01 15:50:21;;;;;;;7.47;4.63;;;4.30;93.90;;;;;;5141860;27;27328;-55
2021/01/01 15:53:06;;;;;;;7.10;4.22;;;4.20;93.90;;;;;;5142589;27;27359;-55
2021/01/01 15:55:50;;;;;;;6.68;4.38;;;4.10;93.90;;;;;;5141994;27;27336;-55
2021/01/01 15:58:34;;;;;;;5.63;3.92;;;4.00;94.00;;;;;;5142092;27;27332;-54
2021/01/01 16:01:21;;;;;;;8.50;4.65;;;3.90;94.00;;;;;;5142091;27;27558;-56
2021/01/01 16:04:06;;;;;;;5.32;3.85;;;3.80;93.70;;;;;;5142132;27;27308;-55
2021/01/01 16:06:50;;;;;;;7.72;3.95;;;3.70;93.80;;;;;;5142434;27;27366;-55
2021/01/01 16:09:35;;;;;;;6.60;4.10;;;3.60;93.60;;;;;;5142052;27;27321;-55
2021/01/01 16:12:19;;;;;;;6.68;5.10;;;3.50;93.70;;;;;;5141818;27;27381;-56
2021/01/01 16:15:04;;;;;;;6.28;4.28;;;3.40;93.90;;;;;;5142173;27;27406;-55
2021/01/01 16:17:49;;;;;;;7.10;4.57;;;3.40;93.80;;;;;;5141831;27;27411;-56
2021/01/01 16:20:34;;;;;;;5.90;4.35;;;3.30;93.90;;;;;;5137897;27;27399;-54
2021/01/01 16:23:19;;;;;;;7.22;4.38;;;3.20;93.80;;;;;;5142086;27;27366;-56
2021/01/01 16:26:03;;;;;;;7.70;4.32;;;3.20;93.90;;;;;;5142077;27;27453;-55
2021/01/01 16:28:48;;;;;;;6.38;4.13;;;3.10;93.90;;;;;;5141996;27;27567;-49
2021/01/01 16:31:33;;;;;;;6.35;4.70;;;3.00;93.70;;;;;;5141194;27;27954;-56
2021/01/01 16:34:19;;;;;;;6.00;4.28;;;2.90;93.80;;;;;;5141156;27;27403;-48
2021/01/01 16:37:07;;;;;;;6.90;4.85;;;2.80;93.90;;;;;;5141967;27;27402;-55
2021/01/01 16:39:54;;;;;;;7.10;4.40;;;2.80;93.90;;;;;;5141801;27;27389;-54
2021/01/01 16:42:39;;;;;;;9.63;5.78;;;2.70;93.80;;;;;;5138400;27;27367;-53
2021/01/01 16:45:23;;;;;;;8.23;5.32;;;2.70;93.80;;;;;;5141792;27;27611;-52
2021/01/01 16:48:08;;;;;;;8.05;5.00;;;2.60;93.80;;;;;;5127555;27;27331;-55
2021/01/01 16:50:52;;;;;;;6.65;4.32;;;2.50;93.60;;;;;;5127873;27;27401;-55
2021/01/01 16:53:37;;;;;;;8.35;5.03;;;2.50;93.60;;;;;;5127801;27;27318;-54
2021/01/01 16:56:21;;;;;;;9.90;5.63;;;2.40;93.70;;;;;;5127154;27;27498;-54
2021/01/01 16:59:06;;;;;;;7.60;5.35;;;2.30;93.70;;;;;;5127300;27;27414;-55
2021/01/01 17:01:54;;;;;;;8.20;5.22;;;2.30;93.60;;;;;;5127697;27;27336;-52
2021/01/01 17:04:39;;;;;;;8.90;5.50;;;2.20;94.00;;;;;;5127508;27;27864;-54
2021/01/01 17:07:24;;;;;;;7.05;4.97;;;2.20;93.60;;;;;;5127158;27;27417;-53
2021/01/01 17:10:09;;;;;;;7.55;4.85;;;2.10;93.60;;;;;;5127281;27;27394;-52
2021/01/01 17:12:53;;;;;;;8.45;5.30;;;2.10;93.60;;;;;;5127421;27;27318;-54
2021/01/01 17:15:38;;;;;;;9.80;5.00;;;2.00;93.90;;;;;;5126803;27;27329;-52
2021/01/01 17:18:22;;;;;;;10.15;5.57;;;2.00;93.60;;;;;;5127167;27;27396;-54
2021/01/01 17:21:07;;;;;;;9.70;5.13;;;1.90;93.60;;;;;;5127033;27;27337;-55
2021/01/01 17:23:52;;;;;;;10.82;6.10;;;1.90;93.50;;;;;;5127376;27;27365;-53
2021/01/01 17:26:37;;;;;;;9.00;5.50;;;1.80;93.60;;;;;;5126610;27;27331;-54
2021/01/01 17:29:22;;;;;;;9.95;5.95;;;1.80;93.50;;;;;;5126459;27;27362;-54
2021/01/01 17:32:06;;;;;;;9.15;6.10;;;1.70;93.50;;;;;;5127191;27;27398;-53
2021/01/01 17:34:54;;;;;;;9.57;5.85;;;1.70;93.60;;;;;;5126457;27;27381;-50
2021/01/01 17:37:40;;;;;;;10.32;6.57;;;1.70;93.60;;;;;;5126018;27;27511;-50
2021/01/01 17:40:24;;;;;;;11.25;6.70;;;1.60;93.60;;;;;;5126761;27;27425;-51
2021/01/01 17:43:09;;;;;;;10.02;6.57;;;1.60;93.60;;;;;;5126730;27;27492;-55
2021/01/01 17:45:54;;;;;;;10.35;5.97;;;1.50;93.60;;;;;;5126677;27;27409;-56
2021/01/01 17:48:38;;;;;;;11.18;6.90;;;1.50;93.60;;;;;;5126906;27;27335;-56
2021/01/01 17:51:23;;;;;;;13.52;7.45;;;1.40;93.60;;;;;;5126773;27;27393;-54
2021/01/01 17:54:07;;;;;;;12.18;7.13;;;1.40;93.40;;;;;;5124692;27;27397;-55
2021/01/01 17:56:52;;;;;;;13.73;7.78;;;1.40;93.50;;;;;;5126813;27;27420;-50
2021/01/01 17:59:37;;;;;;;15.48;8.63;;;1.30;93.40;;;;;;5125335;27;27389;-52
2021/01/01 18:02:22;;;;;;;13.43;8.68;;;1.30;93.50;;;;;;5126370;27;27335;-55
2021/01/01 18:05:07;;;;;;;13.75;8.30;;;1.20;93.50;;;;;;5126670;27;27387;-55
2021/01/01 18:07:53;;;;;;;14.65;8.20;;;1.20;93.50;;;;;;5126351;27;27389;-55
2021/01/01 18:10:37;;;;;;;15.40;9.00;;;1.20;93.40;;;;;;5126189;27;27888;-54
2021/01/01 18:13:25;;;;;;;17.17;9.40;;;1.10;93.40;;;;;;5123163;27;27358;-53
2021/01/01 18:16:09;;;;;;;14.00;9.25;;;1.10;93.30;;;;;;5125881;27;27465;-55
2021/01/01 18:18:54;;;;;;;19.10;11.20;;;1.10;93.40;;;;;;5126144;27;27393;-55
2021/01/01 18:21:38;;;;;;;16.92;9.88;;;1.10;93.30;;;;;;5125661;27;27982;-53
2021/01/01 18:24:23;;;;;;;17.05;10.18;;;1.00;93.30;;;;;;5110982;27;27319;-54
2021/01/01 18:27:07;;;;;;;19.48;10.88;;;1.00;93.30;;;;;;5125999;27;27343;-54
2021/01/01 18:29:53;;;;;;;21.17;12.10;;;0.90;93.30;;;;;;5111061;27;27356;-55
2021/01/01 18:32:38;;;;;;;17.60;10.13;;;0.90;93.30;;;;;;5125940;27;27863;-55
2021/01/01 18:35:24;;;;;;;17.45;11.48;;;0.90;93.30;;;;;;5109990;27;27393;-54
2021/01/01 18:38:19;;;;;;;19.60;11.57;;;0.90;93.40;;;;;;5122864;27;27396;-52
2021/01/01 18:41:04;;;;;;;21.02;11.90;;;0.80;93.30;;;;;;5125992;27;27318;-49
2021/01/01 18:43:53;;;;;;;20.23;12.63;;;0.80;93.30;;;;;;5125686;27;27391;-55
2021/01/01 18:46:59;;;;;;;21.50;12.60;;;0.80;93.40;;;;;;5125556;27;27461;-54
2021/01/01 18:49:45;;;;;;;21.48;13.20;;;0.70;93.30;;;;;;5124934;27;27430;-54
2021/01/01 18:52:30;;;;;;;20.80;12.18;;;0.70;93.40;;;;;;5125818;27;27416;-47
2021/01/01 18:55:19;;;;;;;21.13;12.60;;;0.70;93.40;;;;;;5125543;27;27424;-51
2021/01/01 18:58:04;;;;;;;22.38;12.98;;;0.70;93.40;;;;;;5125673;27;27400;-51
2021/01/01 19:00:52;;;;;;;24.80;13.52;;;0.70;93.40;;;;;;5110685;27;27339;-54
2021/01/01 19:04:03;;;;;;;20.85;13.00;;;0.60;93.40;;;;;;5125726;27;27414;-53
2021/01/01 19:07:04;;;;;;;22.95;12.75;;;0.60;93.40;;;;;;5125346;27;27379;-50
2021/01/01 19:09:50;;;;;;;20.52;12.88;;;0.60;93.30;;;;;;5125016;27;27519;-50
2021/01/01 19:12:35;;;;;;;21.27;12.73;;;0.60;93.40;;;;;;5110730;27;27346;-47
2021/01/01 19:15:30;;;;;;;23.35;13.65;;;0.50;93.60;;;;;;5124941;27;27508;-54
2021/01/01 19:18:42;;;;;;;23.92;13.85;;;0.50;93.30;;;;;;5125412;27;27407;-52
2021/01/01 19:21:28;;;;;;;23.65;13.23;;;0.50;93.30;;;;;;5125344;27;27422;-50
2021/01/01 19:24:13;;;;;;;24.95;14.43;;;0.50;93.40;;;;;;5121110;27;27489;-52
2021/01/01 19:26:58;;;;;;;21.67;13.18;;;0.50;93.30;;;;;;5124243;27;27438;-53
2021/01/01 19:29:43;;;;;;;25.73;13.68;;;0.50;93.40;;;;;;5124161;27;27491;-52
2021/01/01 19:32:27;;;;;;;22.40;12.85;;;0.40;93.40;;;;;;5110053;27;27532;-50
2021/01/01 19:35:18;;;;;;;24.38;13.85;;;0.40;93.40;;;;;;5109381;27;27431;-51
2021/01/01 19:38:18;;;;;;;23.08;13.30;;;0.40;93.40;;;;;;5124899;27;27334;-51
2021/01/01 19:41:14;;;;;;;20.80;13.05;;;0.40;93.40;;;;;;5124814;27;27476;-51
2021/01/01 19:44:20;;;;;;;20.52;12.63;;;0.40;93.30;;;;;;5124340;27;27557;-53
2021/01/01 19:47:46;;;;;;;21.98;13.85;;;0.30;93.30;;;;;;5124870;27;27472;-51
2021/01/01 19:50:52;;;;;;;25.08;13.65;;;0.30;93.30;;;;;;5125084;27;27385;-52
2021/01/01 19:53:54;;;;;;;21.55;12.55;;;0.30;93.30;;;;;;5124733;27;27902;-53
2021/01/01 19:56:48;;;;;;;20.38;12.98;;;0.30;93.30;;;;;;5124976;27;27440;-53
2021/01/01 19:59:49;;;;;;;24.15;13.27;;;0.30;93.30;;;;;;5124710;27;27418;-53
2021/01/01 20:02:44;;;;;;;27.10;13.93;;;0.30;93.30;;;;;;5124229;27;27389;-55
2021/01/01 20:05:31;;;;;;;25.92;14.07;;;0.30;93.40;;;;;;5124056;27;27340;-56
2021/01/01 20:08:34;;;;;;;23.83;14.10;;;0.20;93.40;;;;;;5124753;27;27537;-54
2021/01/01 20:11:19;;;;;;;23.55;14.05;;;0.20;93.50;;;;;;5124029;27;27433;-53
2021/01/01 20:14:03;;;;;;;29.05;15.00;;;0.20;93.40;;;;;;5123699;27;27398;-52
2021/01/01 20:16:47;;;;;;;24.55;14.73;;;0.20;93.40;;;;;;5109444;27;27319;-52
2021/01/01 20:19:33;;;;;;;25.45;13.63;;;0.10;93.30;;;;;;5123890;27;27536;-54
2021/01/01 20:22:18;;;;;;;28.55;14.98;;;0.10;93.30;;;;;;5125515;27;27346;-55
2021/01/01 20:25:03;;;;;;;27.88;15.40;;;0.10;93.40;;;;;;5127934;27;27331;-54
2021/01/01 20:27:48;;;;;;;24.27;14.07;;;0.10;93.30;;;;;;5127774;27;27335;-55
2021/01/01 20:30:33;;;;;;;27.25;14.82;;;0.10;93.30;;;;;;5127777;27;27386;-55
2021/01/01 20:33:18;;;;;;;24.05;15.27;;;0.10;93.30;;;;;;5127829;27;27335;-55
2021/01/01 20:36:12;;;;;;;25.17;14.52;;;0.10;93.30;;;;;;5111469;27;27424;-55
2021/01/01 20:39:12;;;;;;;23.90;14.52;;;0.00;93.20;;;;;;5094785;27;27410;-52
2021/01/01 20:42:31;;;;;;;29.45;15.25;;;0.00;93.20;;;;;;5127583;27;27510;-53
2021/01/01 20:58:01;;;;;;;36.45;19.38;;;0.00;93.60;;;;;;5127388;27;27355;-54
2021/01/01 21:00:47;;;;;;;34.15;18.67;;;0.00;93.70;;;;;;5124127;27;27417;-55
2021/01/01 21:03:32;;;;;;;35.17;18.67;;;0.00;93.70;;;;;;5126250;27;27433;-55
2021/01/01 21:06:17;;;;;;;32.92;18.65;;;0.00;93.80;;;;;;5127519;27;27483;-54
2021/01/01 21:09:23;;;;;;;31.05;18.55;;;0.00;93.80;;;;;;5126629;27;27467;-54
2021/01/01 21:12:32;;;;;;;32.70;18.20;;;0.00;93.90;;;;;;5127179;27;27479;-54
2021/01/01 21:15:54;;;;;;;35.65;19.08;;;0.00;93.90;;;;;;5126866;27;27324;-55
2021/01/01 21:19:10;;;;;;;31.02;17.90;;;0.00;93.90;;;;;;5126522;27;27480;-54
2021/01/01 21:22:17;;;;;;;31.83;18.67;;;0.00;93.90;;;;;;5126323;27;27377;-54
2021/01/01 21:25:07;;;;;;;33.10;17.92;;;0.00;93.90;;;;;;5122930;27;27378;-56
2021/01/01 21:28:11;;;;;;;32.95;19.52;;;0.00;94.00;;;;;;5127218;27;27401;-52
2021/01/01 21:31:45;;;;;;;31.73;18.65;;;0.00;93.90;;;;;;5126672;27;27444;-55
2021/01/01 21:35:08;;;;;;;29.80;17.73;;;0.00;93.90;;;;;;5083319;28;27505;-55
2021/01/01 21:38:17;;;;;;;33.35;18.10;;;0.00;93.80;;;;;;5127127;27;27381;-56
2021/01/01 21:41:05;;;;;;;32.70;17.85;;;0.00;93.70;;;;;;5126767;27;27412;-55
2021/01/01 21:44:27;;;;;;;32.40;19.08;;;0.00;93.70;;;;;;5126214;27;27387;-55
2021/01/01 21:47:47;;;;;;;34.85;18.52;;;0.00;93.60;;;;;;5126695;27;27314;-53
2021/01/01 21:50:32;;;;;;;37.08;18.50;;;-0.10;93.60;;;;;;5123315;27;27381;-54
2021/01/01 21:53:16;;;;;;;33.25;17.58;;;-0.10;93.50;;;;;;5126521;27;27359;-55
2021/01/01 21:56:16;;;;;;;38.10;20.00;;;-0.10;93.50;;;;;;5126178;27;27409;-56
2021/01/01 21:59:01;;;;;;;32.67;19.42;;;-0.10;93.60;;;;;;5126319;27;27480;-54
2021/01/01 22:01:45;;;;;;;32.55;18.90;;;-0.10;93.70;;;;;;5123419;27;27452;-54
2021/01/01 22:04:30;;;;;;;34.15;18.38;;;-0.10;93.70;;;;;;5111157;27;27894;-54
2021/01/01 22:07:14;;;;;;;31.02;17.85;;;-0.10;93.70;;;;;;5125735;27;27596;-53
2021/01/01 22:09:59;;;;;;;33.13;19.73;;;-0.10;93.70;;;;;;5126338;27;27327;-54
2021/01/01 22:12:44;;;;;;;33.75;18.92;;;-0.10;93.70;;;;;;5125808;27;27423;-47
2021/01/01 22:15:28;;;;;;;32.25;18.10;;;-0.10;93.70;;;;;;5126221;27;27399;-54
2021/01/01 22:18:13;;;;;;;32.70;17.70;;;-0.20;93.70;;;;;;5126428;27;27381;-55
2021/01/01 22:20:59;;;;;;;34.55;17.95;;;-0.10;93.70;;;;;;5122375;27;27361;-53
2021/01/01 22:23:45;;;;;;;30.27;17.55;;;-0.20;93.70;;;;;;5125858;27;27323;-55
2021/01/01 22:26:29;;;;;;;29.20;16.55;;;-0.20;93.70;;;;;;5125627;27;27359;-55
2021/01/01 22:29:14;;;;;;;29.77;16.83;;;-0.20;93.70;;;;;;5126337;27;27414;-49
2021/01/01 22:32:02;;;;;;;30.15;17.08;;;-0.10;93.70;;;;;;5126030;27;27460;-55
2021/01/01 22:34:46;;;;;;;30.25;17.60;;;-0.10;93.80;;;;;;5125680;27;27464;-56
2021/01/01 22:37:31;;;;;;;30.02;17.33;;;-0.10;93.90;;;;;;5125885;27;27491;-54
2021/01/01 22:40:15;;;;;;;31.48;17.58;;;-0.10;94.00;;;;;;5125857;27;27445;-55
2021/01/01 22:43:00;;;;;;;32.25;16.88;;;-0.10;94.00;;;;;;5126165;27;27472;-54
2021/01/01 22:45:46;;;;;;;30.20;16.52;;;-0.10;94.10;;;;;;5125194;27;27503;-54
2021/01/01 22:48:31;;;;;;;37.67;17.80;;;-0.10;94.20;;;;;;5126005;27;27412;-56
2021/01/01 22:51:15;;;;;;;29.88;16.42;;;0.00;94.20;;;;;;5125534;27;27428;-55
2021/01/01 22:54:00;;;;;;;32.15;16.95;;;0.00;94.30;;;;;;5125945;27;27436;-53
2021/01/01 22:56:50;;;;;;;31.23;15.80;;;0.00;94.30;;;;;;5125572;27;27468;-54
2021/01/01 22:59:35;;;;;;;27.88;16.17;;;0.00;94.50;;;;;;5124998;27;27397;-54
2021/01/01 23:02:19;;;;;;;30.35;17.33;;;0.00;94.60;;;;;;5110244;27;27509;-52
2021/01/01 23:05:04;;;;;;;30.67;16.17;;;0.10;94.70;;;;;;5110300;27;27478;-55
2021/01/01 23:07:48;;;;;;;30.25;16.33;;;0.10;94.70;;;;;;5124970;27;27529;-56
2021/01/01 23:10:33;;;;;;;30.48;17.15;;;0.10;94.80;;;;;;5124876;27;27427;-56
2021/01/01 23:13:18;;;;;;;28.52;15.45;;;0.10;94.90;;;;;;5125312;27;27413;-53
2021/01/01 23:16:03;;;;;;;29.83;15.68;;;0.10;94.90;;;;;;5124903;27;27518;-52
2021/01/01 23:19:03;;;;;;;27.48;15.88;;;0.10;94.90;;;;;;5125640;27;27406;-56
2021/01/01 23:21:50;;;;;;;27.02;15.93;;;0.10;95.00;;;;;;5125268;27;27389;-56
2021/01/01 23:24:40;;;;;;;24.80;15.88;;;0.20;95.00;;;;;;5124710;27;27386;-54
2021/01/01 23:27:37;;;;;;;31.77;16.55;;;0.20;95.00;;;;;;5125478;27;27348;-53
2021/01/01 23:30:21;;;;;;;29.17;16.27;;;0.20;95.00;;;;;;5125418;27;27389;-56
2021/01/01 23:33:40;;;;;;;26.52;15.07;;;0.20;95.00;;;;;;5125128;27;27396;-55
2021/01/01 23:36:33;;;;;;;27.08;15.40;;;0.30;95.00;;;;;;5122196;27;27347;-55
2021/01/01 23:39:21;;;;;;;34.65;16.00;;;0.30;95.00;;;;;;5125329;27;27402;-51
2021/01/01 23:42:07;;;;;;;28.08;15.32;;;0.30;94.90;;;;;;5109534;27;27431;-54
2021/01/01 23:45:12;;;;;;;26.63;15.50;;;0.30;94.80;;;;;;5123884;27;27559;-54
2021/01/01 23:48:10;;;;;;;26.85;15.13;;;0.30;94.80;;;;;;5124103;27;27442;-55
2021/01/01 23:50:56;;;;;;;26.23;15.55;;;0.30;94.70;;;;;;5124361;27;27352;-56
2021/01/01 23:53:44;;;;;;;30.25;15.38;;;0.20;94.50;;;;;;5109590;27;27329;-53
2021/01/01 23:56:30;;;;;;;26.52;15.27;;;0.20;94.50;;;;;;5125109;27;27328;-52
2021/01/01 23:59:14;;;;;;;31.27;15.85;;;0.20;94.40;;;;;;5128374;27;27390;-55
